Malatya/Erhac, Turkey
Current Conditions -  °F | °C
As of 5:20 AM on Thursday 27 Nov 2014 (Local Time) from LTAT Reporting Station
Light Rain Light Rain  
Wind Chill:   Ceiling: 9000
Heat Index:   Visibility: 5mi
Dew Point:   Wind: 8mph
Humidity: 93%   Direction: 320°NW
Pressure: 29.91"   Gusts: NA
Location:  38.43°N, 38.08°E
Report Text: LTAT 270220Z 32007KT 8000 -RA FEW020 SCT035 OVC090 04/03 Q1013 NOSIG
Loading
Personal Weather Stations






























Interactive Weather Map New forecast layout! Learn more

10-Day Weather Forecast

Advertisements
Track Severe Weather on mobile